Main page
METAR-TAF:

METAR-TAF

Airports :

Damascus International Airport

Damascus, Syria

latitude: 33-25N, longitude: 036-31E, elevation: 608 m

Current weather observation

The report was made 55 minutes ago, at 17:00 UTC
Wind 4 kt from the North
Temperature 18°C
Humidity 42%
Pressure 1021 hPa
Visibility 10 km or more
no clouds below 1500 m and no cumulonimbus

METAR: OSDI 211700Z 36004KT CAVOK 18/05 Q1021

Time: 20:55 (17:55 UTC)

Forecast

The report was made 1 hour and 25 minutes ago, at 16:30 UTC
Forecast valid from 21 at 18 UTC to 22 at 24 UTC
Wind 8 kt from the Southwest
Visibility 10 km or more
no clouds below 1500 m and no cumulonimbus
Temporary
from 22 at 09 UTC to 22 at 18 UTC
Wind 10 kt from the West with gusts up to 20 kt

TAF: OSDI 211630Z 2118/2224 22008KT CAVOK TEMPO 2209/2218 28010G20KT

Weather observations and forecasts of more than 4000 airports (METAR and TAF reports).

The available stations are represented by yellow and red dots on the map.

Hover mouse over dot to see the name of the station.

Then click to see weather observations and forecasts.

To change the map : click on the green buttons with a black cross to zoom in, on the green button with a dash to zoom out, or on the green arrows for adjacent maps.


METAR-TAF: